In Rescue
 
Open Full Screen Window  High Contrast Mode
Wind Gusting 00 knots
07
March 19, 2019 6:47 PM EDT
Weather Information
Wind Direction
  240 °
Wind Speed
  07 kt (8 mph)
Wind Gust
  00 kt (0 mph)
Altimeter
30.27 in
Visibility
10 SM
Temperature
07° C
45° F
Dewpoint
-03° C
27° F
Humidity
49%
Sky Condition
Broken @ 5,000 ft
VFR

METAR KCFS 192247Z AUTO 24007KT 10SM BKN050 07/M03 A3027 RMK AO2 T00701026

FAA Disclaimer: The data displayed is for advisory purposes only and is not to be used for flight planning or operations.